Orbital elements of SHIJIAN-6 02B
| Launched | 22 October 2006 |
| Flight ended | – |
| Launch site | Taiyuan Space Center, PRC |
| Owner | People's Republic of China |
| NORAD ID | 29506 |
| Alternative names |
SJ-6 02B |
| Date fetched |
Epoch osculation |
Inc. [°] |
Ecc. | RA asc node [hr] |
Arg Peri. [°] |
Mean anom [°] |
Mean motion [rev/day] |
Abs. mag |
| Date fetched |
Epoch osculation |
Inc. [°] |
Ecc. | RA asc node [hr] |
Arg Peri. [°] |
Mean anom [°] |
Mean motion [rev/day] |
Abs. mag |
| 2026 May 08 17:57 | 2026 May 08 06:57:22 | 97.7149 | 0.00112 | 10.5065 | 192.3769 | 167.7181 | 15.01262 | 6.743 |
| 2026 May 07 17:58 | 2026 May 07 08:33:39 | 97.7146 | 0.00111 | 10.4447 | 195.9411 | 167.7181 | 15.01262 | 6.743 |
| 2026 May 06 17:57 | 2026 May 06 13:21:54 | 97.7144 | 0.00111 | 10.3917 | 199.1176 | 167.7181 | 15.01262 | 6.743 |
| 2026 May 05 17:57 | 2026 May 05 13:22:12 | 97.7142 | 0.00111 | 10.3254 | 203.0227 | 167.7181 | 15.01262 | 6.743 |
| 2026 May 04 17:57 | 2026 May 04 13:22:30 | 97.7141 | 0.00110 | 10.2592 | 206.9458 | 167.7181 | 15.01262 | 6.743 |
| 2026 May 03 17:57 | 2026 May 03 13:22:48 | 97.7140 | 0.00110 | 10.1930 | 210.9610 | 167.7181 | 15.01262 | 6.743 |
| 2026 May 02 17:57 | 2026 May 02 13:23:06 | 97.7141 | 0.00110 | 10.1268 | 214.9558 | 167.7181 | 15.01262 | 6.743 |
| 2026 May 01 17:56 | 2026 May 01 11:47:24 | 97.7142 | 0.00110 | 10.0562 | 219.1296 | 167.7181 | 15.01262 | 6.743 |
| 2026 Apr 30 17:56 | 2026 Apr 30 06:59:45 | 97.7144 | 0.00110 | 9.9767 | 223.7262 | 167.7181 | 15.01262 | 6.743 |
| 2026 Apr 29 17:57 | 2026 Apr 29 13:23:57 | 97.7144 | 0.00109 | 9.9281 | 226.8575 | 167.7181 | 15.01262 | 6.743 |
| 2026 Apr 28 17:56 | 2026 Apr 28 13:24:13 | 97.7143 | 0.00109 | 9.8619 | 230.6642 | 167.7181 | 15.01262 | 6.743 |
| 2026 Apr 27 17:58 | 2026 Apr 27 13:24:30 | 97.7143 | 0.00109 | 9.7957 | 234.4694 | 167.7181 | 15.01262 | 6.743 |
| 2026 Apr 26 17:58 | 2026 Apr 25 23:00:56 | 97.7141 | 0.00110 | 9.6898 | 240.5475 | 167.7181 | 15.01262 | 6.743 |
| 2026 Apr 25 17:58 | 2026 Apr 25 13:25:02 | 97.7140 | 0.00110 | 9.6633 | 241.8925 | 167.7181 | 15.01262 | 6.743 |
| 2026 Apr 24 17:59 | 2026 Apr 24 07:01:22 | 97.7134 | 0.00110 | 9.5794 | 246.9100 | 167.7181 | 15.01262 | 6.743 |
| 2026 Apr 23 17:57 | 2026 Apr 23 07:01:37 | 97.7131 | 0.00111 | 9.5132 | 250.6417 | 167.7181 | 15.01262 | 6.743 |
| 2026 Apr 22 17:57 | 2026 Apr 22 07:01:53 | 97.7128 | 0.00111 | 9.4470 | 254.4510 | 167.7181 | 15.01262 | 6.743 |
| 2026 Apr 21 17:57 | 2026 Apr 21 11:50:05 | 97.7125 | 0.00111 | 9.3940 | 257.5046 | 167.7181 | 15.01262 | 6.743 |
| 2026 Apr 20 17:57 | 2026 Apr 20 11:50:20 | 97.7123 | 0.00112 | 9.3278 | 261.4139 | 167.7181 | 15.01262 | 6.743 |
| 2026 Apr 19 17:58 | 2026 Apr 19 13:26:33 | 97.7122 | 0.00112 | 9.2660 | 264.9452 | 167.7181 | 15.01262 | 6.743 |
| 2026 Apr 18 17:56 | 2026 Apr 18 07:02:52 | 97.7123 | 0.00112 | 9.1822 | 269.6102 | 167.7181 | 15.01262 | 6.743 |
| 2026 Apr 16 17:57 | 2026 Apr 16 07:03:20 | 97.7125 | 0.00114 | 9.0498 | 277.0842 | 167.7181 | 15.01262 | 6.743 |
| 2026 Apr 14 17:57 | 2026 Apr 14 11:51:45 | 97.7126 | 0.00115 | 8.9307 | 283.7758 | 167.7181 | 15.01262 | 6.743 |
| 2026 Apr 13 17:57 | 2026 Apr 13 05:28:03 | 97.7124 | 0.00116 | 8.8468 | 288.3751 | 167.7181 | 15.01262 | 6.743 |
| 2026 Apr 12 17:57 | 2026 Apr 12 11:52:12 | 97.7124 | 0.00116 | 8.7983 | 291.0766 | 167.7181 | 15.01262 | 6.743 |
| 2026 Apr 11 17:57 | 2026 Apr 11 11:52:26 | 97.7121 | 0.00117 | 8.7321 | 294.5747 | 167.7181 | 15.01262 | 6.743 |